Time;durP1;ratioP1;P1;durP2;ratioP2;P2;SDS_P1;SDS_P2;PMS_P1;PMS_P2;Temp;Humidity;BMP_temperature;BMP_pressure;BME280_temperature;BME280_humidity;BME280_pressure;Samples;Min_cycle;Max_cycle;Signal;HPM_P1;HPM_P2
2023/06/18 00:00:39;;;;;;;11.75;9.30;;;22.60;96.10;;;;;;5021920;28;20088;-69
2023/06/18 00:03:05;;;;;;;11.27;9.10;;;22.60;95.90;;;;;;5011537;28;20025;-69
2023/06/18 00:05:32;;;;;;;9.95;8.48;;;22.70;95.70;;;;;;5025668;28;20053;-69
2023/06/18 00:07:57;;;;;;;13.05;8.68;;;22.70;95.60;;;;;;5024891;28;20072;-69
2023/06/18 00:10:23;;;;;;;10.18;9.00;;;22.70;95.60;;;;;;5021997;28;20033;-69
2023/06/18 00:12:49;;;;;;;10.60;9.40;;;22.50;96.60;;;;;;5023413;28;20033;-69
2023/06/18 00:15:15;;;;;;;10.85;9.23;;;22.30;97.00;;;;;;5030853;28;20095;-69
2023/06/18 00:17:41;;;;;;;12.43;9.32;;;22.40;96.90;;;;;;5021937;28;20113;-69
2023/06/18 00:20:07;;;;;;;12.13;8.52;;;22.30;97.00;;;;;;5027987;28;20025;-70
2023/06/18 00:22:37;;;;;;;12.70;8.73;;;22.40;96.50;;;;;;5031097;28;20030;-69
2023/06/18 00:25:05;;;;;;;12.68;9.38;;;22.40;97.00;;;;;;5027652;28;20056;-69
2023/06/18 00:27:30;;;;;;;13.80;8.90;;;22.40;97.30;;;;;;5024379;28;20535;-69
2023/06/18 00:29:56;;;;;;;10.52;9.45;;;22.30;98.00;;;;;;5022425;28;20128;-70
2023/06/18 00:32:22;;;;;;;15.38;9.48;;;22.30;98.30;;;;;;5024923;28;20018;-69
2023/06/18 00:34:53;;;;;;;10.57;9.52;;;22.40;98.80;;;;;;5011128;28;20076;-70
2023/06/18 00:37:20;;;;;;;15.30;10.65;;;22.20;99.90;;;;;;5023372;28;20018;-69
2023/06/18 00:39:46;;;;;;;13.48;10.10;;;22.00;99.90;;;;;;5022420;28;20049;-70
2023/06/18 00:42:13;;;;;;;11.93;9.88;;;21.90;99.90;;;;;;5018162;28;20040;-70
2023/06/18 00:44:42;;;;;;;11.63;10.00;;;21.90;99.90;;;;;;5026403;28;20025;-70
2023/06/18 00:47:12;;;;;;;12.88;11.48;;;21.90;99.90;;;;;;5020461;28;20060;-69
2023/06/18 00:49:41;;;;;;;19.10;11.23;;;21.70;99.90;;;;;;5018275;28;20040;-69
2023/06/18 00:52:12;;;;;;;13.73;11.75;;;21.70;99.90;;;;;;5019863;28;20387;-70
2023/06/18 00:54:44;;;;;;;13.43;11.52;;;21.90;99.90;;;;;;5017408;28;20022;-69
2023/06/18 00:57:15;;;;;;;15.10;10.07;;;21.90;99.90;;;;;;5014682;28;20048;-69
2023/06/18 00:59:44;;;;;;;11.57;9.82;;;22.00;99.90;;;;;;5021473;28;20044;-69
2023/06/18 01:02:09;;;;;;;11.65;10.43;;;22.00;99.90;;;;;;5023996;28;20029;-70
2023/06/18 01:04:37;;;;;;;11.77;10.30;;;22.00;99.90;;;;;;5030744;28;20036;-69
2023/06/18 01:07:13;;;;;;;12.70;11.27;;;21.90;99.90;;;;;;5018945;28;20474;-69
2023/06/18 01:09:41;;;;;;;10.85;9.73;;;21.90;99.90;;;;;;5013578;28;20045;-69
2023/06/18 01:12:07;;;;;;;10.65;9.65;;;21.90;99.90;;;;;;5018535;28;20541;-69
2023/06/18 01:14:37;;;;;;;12.27;10.23;;;22.00;99.90;;;;;;5028202;28;20080;-69
2023/06/18 01:17:04;;;;;;;14.25;10.07;;;22.00;99.90;;;;;;5022342;28;20018;-69
2023/06/18 01:19:55;;;;;;;11.00;9.55;;;21.90;99.90;;;;;;5022826;28;20024;-69
2023/06/18 01:22:43;;;;;;;14.57;11.90;;;21.90;99.90;;;;;;5023661;28;20068;-69
2023/06/18 01:25:09;;;;;;;12.75;10.13;;;21.80;99.90;;;;;;5023259;28;20029;-69
2023/06/18 01:27:40;;;;;;;12.43;10.18;;;21.80;99.90;;;;;;5012171;28;20032;-69
2023/06/18 01:30:09;;;;;;;15.00;11.15;;;21.60;99.90;;;;;;5027188;28;20067;-69
2023/06/18 01:32:38;;;;;;;12.68;10.40;;;21.50;99.90;;;;;;5025479;28;20030;-69
2023/06/18 01:35:18;;;;;;;13.82;11.15;;;21.60;99.90;;;;;;5027257;28;20037;-69
2023/06/18 01:38:12;;;;;;;16.70;11.73;;;21.60;99.90;;;;;;5021631;28;20473;-69
2023/06/18 01:40:45;;;;;;;16.45;11.52;;;21.60;99.90;;;;;;5030126;28;20029;-70
2023/06/18 01:43:26;;;;;;;16.75;12.10;;;21.50;99.90;;;;;;5023821;28;20029;-69
2023/06/18 01:46:06;;;;;;;11.90;10.70;;;21.40;99.90;;;;;;5014888;28;20140;-69
2023/06/18 01:48:56;;;;;;;17.38;12.10;;;21.40;99.90;;;;;;5020603;28;20030;-69
2023/06/18 01:51:25;;;;;;;15.77;11.55;;;21.30;99.90;;;;;;5003012;28;20029;-69
2023/06/18 01:53:53;;;;;;;12.48;10.52;;;21.40;99.90;;;;;;5023417;28;20112;-69
2023/06/18 01:56:19;;;;;;;12.02;10.93;;;21.20;99.90;;;;;;5005596;28;20022;-69
2023/06/18 01:58:45;;;;;;;11.98;10.52;;;21.10;99.90;;;;;;5027957;28;20026;-70
2023/06/18 02:01:11;;;;;;;19.67;11.07;;;20.90;99.90;;;;;;5025502;28;20029;-69
2023/06/18 02:03:40;;;;;;;11.93;10.70;;;20.90;99.90;;;;;;5021878;28;20055;-69
2023/06/18 02:06:07;;;;;;;13.02;11.10;;;20.80;99.90;;;;;;5021295;28;20018;-69
2023/06/18 02:08:34;;;;;;;12.57;11.40;;;20.70;99.90;;;;;;5024199;28;20037;-69
2023/06/18 02:11:00;;;;;;;14.27;11.80;;;20.70;99.90;;;;;;5024243;28;20022;-69
2023/06/18 02:13:26;;;;;;;13.40;11.52;;;20.60;99.90;;;;;;5027669;28;20033;-69
2023/06/18 02:15:52;;;;;;;14.90;11.95;;;20.60;99.90;;;;;;5023715;28;20117;-69
2023/06/18 02:18:18;;;;;;;16.40;12.80;;;20.60;99.90;;;;;;5029163;28;20489;-69
2023/06/18 02:20:44;;;;;;;15.55;11.95;;;20.60;99.90;;;;;;5018905;28;20036;-69
2023/06/18 02:23:10;;;;;;;13.65;11.38;;;20.70;99.90;;;;;;5023664;28;20104;-70
2023/06/18 02:25:36;;;;;;;13.05;11.75;;;20.70;99.90;;;;;;5026054;28;20030;-69
2023/06/18 02:28:02;;;;;;;14.73;11.45;;;20.70;99.90;;;;;;5024852;28;20021;-69
2023/06/18 02:30:29;;;;;;;14.60;11.95;;;20.60;99.90;;;;;;5024345;28;20035;-69
2023/06/18 02:32:56;;;;;;;13.77;12.45;;;20.50;99.90;;;;;;5020306;28;20061;-69
2023/06/18 02:35:21;;;;;;;13.40;12.13;;;20.40;99.90;;;;;;5024480;28;20052;-69
2023/06/18 02:37:47;;;;;;;16.55;12.68;;;20.50;99.90;;;;;;5026040;28;20034;-69
2023/06/18 02:40:14;;;;;;;12.77;11.55;;;20.40;99.90;;;;;;5019055;28;20021;-69
2023/06/18 02:42:47;;;;;;;16.23;11.43;;;20.30;99.90;;;;;;5023530;28;20021;-69
2023/06/18 02:45:25;;;;;;;13.07;11.40;;;20.50;99.90;;;;;;5019111;28;20023;-69
2023/06/18 02:47:51;;;;;;;14.60;11.55;;;20.50;99.90;;;;;;5023228;28;20018;-69
2023/06/18 02:50:18;;;;;;;12.90;11.52;;;20.50;99.90;;;;;;5023953;28;20543;-69
2023/06/18 02:52:48;;;;;;;12.98;11.43;;;20.50;99.90;;;;;;5025839;28;20512;-69
2023/06/18 02:55:14;;;;;;;12.85;11.50;;;20.50;99.90;;;;;;5028758;28;20030;-69
2023/06/18 02:57:40;;;;;;;13.55;12.27;;;20.40;99.90;;;;;;5021544;28;20036;-69
2023/06/18 03:00:11;;;;;;;13.82;12.30;;;20.40;99.90;;;;;;5027455;28;20150;-69
2023/06/18 03:02:41;;;;;;;16.48;12.07;;;20.30;99.90;;;;;;5019779;28;20026;-69
2023/06/18 03:05:07;;;;;;;14.35;11.43;;;20.30;99.90;;;;;;5024647;28;20022;-69
2023/06/18 03:07:33;;;;;;;14.25;12.30;;;20.40;99.90;;;;;;5017299;28;20474;-69
2023/06/18 03:09:59;;;;;;;15.35;11.60;;;20.40;99.90;;;;;;5023212;28;20040;-69
2023/06/18 03:12:24;;;;;;;14.75;12.07;;;20.40;99.90;;;;;;5030263;28;20440;-69
2023/06/18 03:14:50;;;;;;;15.00;12.45;;;20.40;99.90;;;;;;5014097;28;20031;-69
2023/06/18 03:17:16;;;;;;;12.50;11.10;;;20.40;99.90;;;;;;5020094;28;20369;-69
2023/06/18 03:19:42;;;;;;;12.25;11.02;;;20.40;99.90;;;;;;5016252;28;20033;-69
2023/06/18 03:22:07;;;;;;;14.00;12.48;;;20.50;99.90;;;;;;5024007;28;20029;-69
2023/06/18 03:24:34;;;;;;;12.73;11.43;;;20.40;99.90;;;;;;5022386;28;20041;-69
2023/06/18 03:27:00;;;;;;;13.90;11.88;;;20.40;99.90;;;;;;5023523;28;20108;-69
2023/06/18 03:29:28;;;;;;;13.20;11.85;;;20.40;99.90;;;;;;5026916;28;20025;-69
2023/06/18 03:31:54;;;;;;;15.23;11.20;;;20.30;99.90;;;;;;5020596;28;20029;-69
2023/06/18 03:34:20;;;;;;;14.57;12.48;;;20.40;99.90;;;;;;5022759;28;20034;-69
2023/06/18 03:36:47;;;;;;;13.05;10.43;;;20.30;99.90;;;;;;5024442;28;20473;-69
2023/06/18 03:39:15;;;;;;;16.63;11.23;;;20.30;99.90;;;;;;5020364;28;20057;-69
2023/06/18 03:41:41;;;;;;;14.98;11.63;;;20.30;99.90;;;;;;5029994;28;20072;-69
2023/06/18 03:44:07;;;;;;;14.57;11.95;;;20.30;99.90;;;;;;5023742;28;20018;-69
2023/06/18 03:46:33;;;;;;;13.68;12.27;;;20.20;99.90;;;;;;5025101;28;20033;-69
2023/06/18 03:48:59;;;;;;;13.57;11.90;;;20.20;99.90;;;;;;5016369;28;20066;-69
2023/06/18 03:51:26;;;;;;;13.40;12.15;;;20.20;99.90;;;;;;5016792;28;20021;-69
2023/06/18 03:53:51;;;;;;;15.23;11.48;;;20.20;99.90;;;;;;5018249;28;20028;-69
2023/06/18 03:56:21;;;;;;;13.45;11.15;;;20.00;99.90;;;;;;5026820;28;20021;-69
2023/06/18 03:58:48;;;;;;;16.67;12.18;;;19.90;99.90;;;;;;5026356;28;20018;-69
2023/06/18 04:01:14;;;;;;;15.48;12.40;;;19.90;99.90;;;;;;5024900;28;20036;-70
2023/06/18 04:03:40;;;;;;;14.07;11.20;;;19.90;99.90;;;;;;5008949;28;20032;-69
2023/06/18 04:06:06;;;;;;;13.30;12.00;;;19.80;99.90;;;;;;5031903;28;20033;-69
2023/06/18 04:08:33;;;;;;;11.98;10.70;;;19.90;99.90;;;;;;5027971;28;20428;-69
2023/06/18 04:10:59;;;;;;;13.48;10.68;;;20.00;99.90;;;;;;5024996;28;20020;-69
2023/06/18 04:13:25;;;;;;;15.52;11.63;;;20.00;99.90;;;;;;5025214;28;20097;-69
2023/06/18 04:15:50;;;;;;;12.48;11.20;;;19.80;99.90;;;;;;5028590;28;20017;-69
2023/06/18 04:18:17;;;;;;;13.93;12.60;;;19.80;99.90;;;;;;5024555;28;20035;-69
2023/06/18 04:20:43;;;;;;;15.00;12.30;;;19.80;99.90;;;;;;5015580;28;20026;-69
2023/06/18 04:23:09;;;;;;;17.02;10.95;;;19.70;99.90;;;;;;5022080;28;20098;-69
2023/06/18 04:25:34;;;;;;;15.82;12.50;;;19.80;99.90;;;;;;5030706;28;20034;-69
2023/06/18 04:28:00;;;;;;;14.40;12.82;;;19.80;99.90;;;;;;5020905;28;20018;-69
2023/06/18 04:30:26;;;;;;;16.65;13.15;;;19.80;99.90;;;;;;5026142;28;20136;-69
2023/06/18 04:32:52;;;;;;;13.18;11.60;;;19.90;99.90;;;;;;5027510;28;20037;-69
2023/06/18 04:35:18;;;;;;;13.00;11.63;;;19.80;99.90;;;;;;5023140;28;20382;-69
2023/06/18 04:37:45;;;;;;;14.38;11.85;;;19.70;99.90;;;;;;5024681;28;20034;-69
2023/06/18 04:40:11;;;;;;;23.42;12.80;;;19.80;99.90;;;;;;5028832;28;20532;-69
2023/06/18 04:42:36;;;;;;;17.02;12.48;;;19.80;99.90;;;;;;5029472;28;20030;-69
2023/06/18 04:45:03;;;;;;;16.65;12.60;;;19.80;99.90;;;;;;5027677;28;20363;-69
2023/06/18 04:47:30;;;;;;;13.80;11.95;;;19.90;99.90;;;;;;5024871;28;20477;-69
2023/06/18 04:49:55;;;;;;;19.02;12.00;;;20.00;99.90;;;;;;5026305;28;20033;-69
2023/06/18 04:52:21;;;;;;;16.60;12.18;;;20.00;99.90;;;;;;5021129;28;20029;-69
2023/06/18 04:54:47;;;;;;;16.77;11.80;;;20.10;99.90;;;;;;5011545;28;20373;-69
2023/06/18 04:57:13;;;;;;;19.13;12.52;;;20.20;99.90;;;;;;5020994;28;20471;-69
2023/06/18 04:59:39;;;;;;;13.43;10.60;;;20.20;99.90;;;;;;5023278;28;20036;-69
2023/06/18 05:02:06;;;;;;;13.85;11.27;;;20.30;99.90;;;;;;5030258;28;20036;-69
2023/06/18 05:04:32;;;;;;;12.90;11.43;;;20.20;99.90;;;;;;5031314;28;20072;-69
2023/06/18 05:06:58;;;;;;;15.48;12.40;;;20.10;99.90;;;;;;5015772;28;20017;-69
2023/06/18 05:09:25;;;;;;;15.55;11.70;;;20.00;99.90;;;;;;5022692;28;20201;-69
2023/06/18 05:11:51;;;;;;;16.45;12.77;;;20.00;99.90;;;;;;5019193;28;20018;-69
2023/06/18 05:14:16;;;;;;;13.65;11.80;;;20.00;99.90;;;;;;5022165;28;20033;-69
2023/06/18 05:16:42;;;;;;;15.48;13.98;;;20.10;99.90;;;;;;5021353;28;20105;-68
2023/06/18 05:19:08;;;;;;;13.45;11.77;;;20.20;99.90;;;;;;5023909;28;20482;-68
2023/06/18 05:21:33;;;;;;;14.73;12.00;;;20.30;99.90;;;;;;5018063;28;20034;-68
2023/06/18 05:23:59;;;;;;;12.95;11.05;;;20.30;99.90;;;;;;5011245;28;20110;-69
2023/06/18 05:26:25;;;;;;;17.45;11.80;;;20.40;99.90;;;;;;5030227;28;20029;-69
2023/06/18 05:28:51;;;;;;;12.80;11.30;;;20.40;99.90;;;;;;5021206;28;20029;-68
2023/06/18 05:31:17;;;;;;;13.93;12.43;;;20.50;99.90;;;;;;5021519;28;20397;-69
2023/06/18 05:33:42;;;;;;;17.80;13.15;;;20.60;99.90;;;;;;5028993;28;20100;-68
2023/06/18 05:36:08;;;;;;;16.92;13.02;;;20.60;99.90;;;;;;5029623;28;20041;-69
2023/06/18 05:38:33;;;;;;;13.25;11.57;;;20.70;99.90;;;;;;5026262;28;20404;-68
2023/06/18 05:40:59;;;;;;;13.88;11.80;;;20.70;99.90;;;;;;5024115;28;20033;-68
2023/06/18 05:43:25;;;;;;;16.00;12.90;;;20.80;99.90;;;;;;5024447;28;20025;-68
2023/06/18 05:45:51;;;;;;;17.83;13.15;;;20.90;99.90;;;;;;5021994;28;20116;-68
2023/06/18 05:48:16;;;;;;;16.80;13.65;;;20.90;99.90;;;;;;5024729;28;20477;-68
2023/06/18 05:50:42;;;;;;;19.27;15.32;;;21.00;99.90;;;;;;5025304;28;20042;-68
2023/06/18 05:53:08;;;;;;;16.33;13.85;;;21.10;99.90;;;;;;5024372;28;20029;-68
2023/06/18 05:55:34;;;;;;;14.95;12.27;;;21.10;99.90;;;;;;5020693;28;20029;-69
2023/06/18 05:57:59;;;;;;;13.30;11.82;;;21.30;99.90;;;;;;5023787;28;20429;-70
2023/06/18 06:00:26;;;;;;;12.30;10.50;;;21.30;99.90;;;;;;5023730;28;20025;-70
2023/06/18 06:02:52;;;;;;;14.13;11.90;;;21.40;99.90;;;;;;5029432;28;20394;-70
2023/06/18 06:05:17;;;;;;;15.43;12.02;;;21.40;99.90;;;;;;5024522;28;20556;-70
2023/06/18 06:07:43;;;;;;;12.40;10.73;;;21.50;99.90;;;;;;5024277;28;20153;-70
2023/06/18 06:10:09;;;;;;;13.88;11.02;;;21.60;99.90;;;;;;5024516;28;20116;-70
2023/06/18 06:12:35;;;;;;;14.23;10.27;;;21.60;99.90;;;;;;5023771;28;20018;-70
2023/06/18 06:15:01;;;;;;;15.95;9.98;;;21.60;99.90;;;;;;5026846;28;20146;-70
2023/06/18 06:17:28;;;;;;;14.57;10.45;;;21.60;99.90;;;;;;5022124;28;20034;-71
2023/06/18 06:19:54;;;;;;;13.88;10.40;;;21.70;99.90;;;;;;5012878;28;20029;-70
2023/06/18 06:22:19;;;;;;;15.07;12.18;;;21.70;99.90;;;;;;5028495;28;20033;-70
2023/06/18 06:24:45;;;;;;;14.07;11.63;;;21.60;99.90;;;;;;5019935;28;20026;-68
2023/06/18 06:27:11;;;;;;;14.38;11.40;;;21.60;99.90;;;;;;5019924;28;20462;-68
2023/06/18 06:29:37;;;;;;;21.65;12.13;;;21.70;99.90;;;;;;5031740;28;20037;-68
2023/06/18 06:32:03;;;;;;;15.65;12.20;;;21.70;99.90;;;;;;5021753;28;20044;-69
2023/06/18 06:34:29;;;;;;;14.60;10.70;;;21.80;99.90;;;;;;5023045;28;20030;-69
2023/06/18 06:36:54;;;;;;;13.88;12.40;;;21.80;99.90;;;;;;5024411;28;20454;-68
2023/06/18 06:39:20;;;;;;;15.30;10.80;;;21.90;99.90;;;;;;5021060;28;20033;-67
2023/06/18 06:41:46;;;;;;;14.00;9.45;;;22.10;99.90;;;;;;5024413;28;20104;-68
2023/06/18 06:44:12;;;;;;;10.77;9.35;;;22.20;99.90;;;;;;5025595;28;20045;-68
2023/06/18 06:46:38;;;;;;;11.52;9.30;;;22.30;99.90;;;;;;5027527;28;20104;-67
2023/06/18 06:49:07;;;;;;;11.57;9.20;;;22.40;99.90;;;;;;5028305;28;20124;-69
2023/06/18 06:51:35;;;;;;;11.18;9.18;;;22.50;99.90;;;;;;5022934;28;20029;-68
2023/06/18 06:54:00;;;;;;;12.57;7.93;;;22.60;99.90;;;;;;5010647;28;20028;-69
2023/06/18 06:56:26;;;;;;;12.30;7.70;;;22.70;99.90;;;;;;5021507;28;20025;-67
2023/06/18 06:58:52;;;;;;;10.43;8.80;;;22.80;99.90;;;;;;5026133;28;20398;-68
2023/06/18 07:01:19;;;;;;;8.70;7.80;;;22.80;99.90;;;;;;5019775;28;20102;-68
2023/06/18 07:03:45;;;;;;;8.98;7.35;;;22.90;99.90;;;;;;5012364;28;20033;-68
2023/06/18 07:06:11;;;;;;;9.27;8.38;;;22.90;99.90;;;;;;5021616;28;20415;-68
2023/06/18 07:08:37;;;;;;;10.23;9.07;;;22.80;99.90;;;;;;5023796;28;20077;-68
2023/06/18 07:11:03;;;;;;;38.90;9.63;;;22.80;99.90;;;;;;5021675;28;20029;-68
2023/06/18 07:13:29;;;;;;;21.52;7.80;;;22.90;99.90;;;;;;5021891;28;20055;-68
2023/06/18 07:15:54;;;;;;;15.80;8.52;;;22.90;99.90;;;;;;5019172;28;20040;-69
2023/06/18 07:18:20;;;;;;;8.32;7.13;;;23.10;99.90;;;;;;5018258;28;20017;-68
2023/06/18 07:20:46;;;;;;;8.25;7.35;;;23.10;99.90;;;;;;5022139;28;20114;-68
2023/06/18 07:23:12;;;;;;;10.05;7.63;;;23.20;99.90;;;;;;5023286;28;20152;-68
2023/06/18 07:25:38;;;;;;;8.55;7.15;;;23.30;99.90;;;;;;5013699;28;20022;-68
2023/06/18 07:28:03;;;;;;;9.38;7.85;;;23.40;99.90;;;;;;5021292;28;20466;-68
2023/06/18 07:30:29;;;;;;;9.10;7.88;;;23.40;99.90;;;;;;5023367;28;20140;-67
2023/06/18 07:32:55;;;;;;;8.98;6.53;;;23.50;99.90;;;;;;5028274;28;20033;-68
2023/06/18 07:35:20;;;;;;;12.48;7.15;;;23.60;99.90;;;;;;5025100;28;20102;-68
2023/06/18 07:37:47;;;;;;;8.80;6.68;;;23.70;99.90;;;;;;5010077;28;20022;-67
2023/06/18 07:40:13;;;;;;;12.18;7.13;;;23.70;99.90;;;;;;5029824;28;20072;-68
2023/06/18 07:42:39;;;;;;;10.13;7.78;;;23.70;99.90;;;;;;5024492;28;20434;-69
2023/06/18 07:45:05;;;;;;;8.15;7.30;;;23.80;99.90;;;;;;5016124;28;20029;-69
2023/06/18 07:47:30;;;;;;;9.57;7.50;;;23.90;99.90;;;;;;5029894;28;20044;-69
2023/06/18 07:49:57;;;;;;;8.95;7.50;;;24.00;99.90;;;;;;5031118;28;20384;-69
2023/06/18 07:52:23;;;;;;;11.15;7.20;;;24.00;99.90;;;;;;5011456;28;20386;-69
2023/06/18 07:54:48;;;;;;;8.65;7.70;;;24.10;99.90;;;;;;5032236;28;20029;-69
2023/06/18 07:57:15;;;;;;;13.85;7.93;;;24.30;99.90;;;;;;5029772;28;20018;-68
2023/06/18 07:59:41;;;;;;;8.30;7.25;;;24.40;99.90;;;;;;5029402;28;20053;-68
2023/06/18 08:02:06;;;;;;;9.95;6.78;;;24.50;99.90;;;;;;5030150;28;20524;-69
2023/06/18 08:04:32;;;;;;;9.65;6.72;;;24.60;99.90;;;;;;5024484;28;20214;-68
2023/06/18 08:06:58;;;;;;;7.13;6.30;;;24.70;99.90;;;;;;5026470;28;20025;-68
2023/06/18 08:09:23;;;;;;;7.93;6.88;;;24.70;99.90;;;;;;5018840;28;20042;-69
2023/06/18 08:11:49;;;;;;;7.07;6.43;;;24.80;99.90;;;;;;5030194;28;20026;-68
2023/06/18 08:14:15;;;;;;;6.65;5.95;;;24.80;99.90;;;;;;5024243;28;20133;-69
2023/06/18 08:16:40;;;;;;;7.75;5.90;;;24.90;99.90;;;;;;5025778;28;20788;-69
2023/06/18 08:19:06;;;;;;;6.57;5.88;;;24.80;99.90;;;;;;4991502;28;20028;-69
2023/06/18 08:21:32;;;;;;;6.40;5.80;;;24.90;99.90;;;;;;5022090;28;20068;-68
2023/06/18 08:23:57;;;;;;;7.40;6.53;;;24.80;99.90;;;;;;5024597;28;20033;-70
2023/06/18 08:26:23;;;;;;;9.60;5.72;;;24.80;99.90;;;;;;5024718;28;20025;-69
2023/06/18 08:28:51;;;;;;;6.28;5.43;;;24.80;99.90;;;;;;5026108;28;20061;-69
2023/06/18 08:31:17;;;;;;;6.22;5.63;;;24.90;99.90;;;;;;5026730;28;20022;-70
2023/06/18 08:33:43;;;;;;;10.35;5.95;;;24.90;99.90;;;;;;5025867;28;20033;-69
2023/06/18 08:36:09;;;;;;;7.45;6.75;;;24.90;99.90;;;;;;5026410;28;20040;-69
2023/06/18 08:38:34;;;;;;;6.25;5.65;;;24.90;99.90;;;;;;5026523;28;20042;-70
2023/06/18 08:41:01;;;;;;;10.38;5.75;;;24.90;99.90;;;;;;5007123;28;20075;-69
2023/06/18 08:43:32;;;;;;;7.25;6.45;;;24.90;99.90;;;;;;5027408;28;20104;-69
2023/06/18 08:46:12;;;;;;;7.50;6.80;;;24.90;99.90;;;;;;5025283;28;20100;-70
2023/06/18 08:48:58;;;;;;;7.88;5.80;;;24.80;99.90;;;;;;5026511;28;20037;-69
2023/06/18 08:51:24;;;;;;;6.50;5.90;;;24.90;99.90;;;;;;5024242;28;20029;-71
2023/06/18 08:53:55;;;;;;;10.85;5.75;;;24.90;99.90;;;;;;5026498;28;20021;-71
2023/06/18 08:56:24;;;;;;;9.35;5.93;;;24.90;99.90;;;;;;5025216;28;20017;-67
2023/06/18 08:58:58;;;;;;;9.55;5.40;;;24.80;99.90;;;;;;5025546;28;20032;-67
2023/06/18 09:01:24;;;;;;;7.15;5.72;;;24.80;99.90;;;;;;5025614;28;20116;-67
2023/06/18 09:03:53;;;;;;;7.00;6.40;;;24.90;99.90;;;;;;5026427;28;20064;-68
2023/06/18 09:06:18;;;;;;;9.52;6.35;;;24.90;99.90;;;;;;5026495;28;20028;-67
2023/06/18 09:08:46;;;;;;;8.07;5.75;;;24.80;99.90;;;;;;5025704;28;20030;-67
2023/06/18 09:11:12;;;;;;;7.50;6.63;;;24.80;99.90;;;;;;5025459;28;20042;-67
2023/06/18 09:13:43;;;;;;;6.85;6.25;;;24.80;99.90;;;;;;5026029;28;20010;-67
2023/06/18 09:16:09;;;;;;;8.60;5.82;;;24.70;99.90;;;;;;5026463;28;20256;-67
2023/06/18 09:18:35;;;;;;;7.13;6.22;;;24.70;99.90;;;;;;5025514;28;20029;-68
2023/06/18 09:21:03;;;;;;;10.63;7.18;;;24.70;99.90;;;;;;5025768;28;20053;-68
2023/06/18 09:23:30;;;;;;;10.45;6.43;;;24.60;99.90;;;;;;5025313;28;20068;-68
2023/06/18 09:25:57;;;;;;;8.15;6.85;;;24.60;99.90;;;;;;5023198;28;20469;-68
2023/06/18 09:28:24;;;;;;;9.52;7.75;;;24.60;99.90;;;;;;5025394;28;20026;-69
2023/06/18 09:31:00;;;;;;;7.38;6.60;;;24.60;99.90;;;;;;5025715;28;20033;-67
2023/06/18 09:33:33;;;;;;;8.10;6.60;;;24.60;99.90;;;;;;5024501;28;20053;-69
2023/06/18 09:36:00;;;;;;;8.85;8.00;;;24.40;99.90;;;;;;4991120;28;20536;-69
2023/06/18 09:38:34;;;;;;;8.25;6.40;;;24.30;99.90;;;;;;5023929;28;20087;-70
2023/06/18 09:41:00;;;;;;;7.15;6.50;;;24.20;99.90;;;;;;5027068;28;20040;-70
2023/06/18 09:43:37;;;;;;;7.35;6.65;;;24.20;99.90;;;;;;5027261;28;20079;-69
2023/06/18 09:46:06;;;;;;;8.00;7.20;;;24.30;99.90;;;;;;5008659;28;20026;-69
2023/06/18 09:48:34;;;;;;;7.68;6.97;;;24.40;99.90;;;;;;5025238;28;20096;-69
2023/06/18 09:51:00;;;;;;;10.55;7.55;;;24.40;99.90;;;;;;5024087;28;20021;-69
2023/06/18 09:53:26;;;;;;;8.45;7.65;;;24.50;99.90;;;;;;5008897;28;20036;-68
2023/06/18 09:55:52;;;;;;;19.77;7.22;;;24.60;99.90;;;;;;5025393;28;20033;-69
2023/06/18 09:58:18;;;;;;;8.48;7.57;;;24.70;99.90;;;;;;5025160;28;20022;-69
2023/06/18 10:01:02;;;;;;;8.00;7.22;;;24.50;99.90;;;;;;5024598;28;20525;-70
2023/06/18 10:03:28;;;;;;;7.63;6.85;;;24.50;99.90;;;;;;5024434;28;20030;-70
2023/06/18 10:05:55;;;;;;;7.47;6.82;;;24.40;99.90;;;;;;5024069;28;20069;-69
2023/06/18 10:08:21;;;;;;;7.78;7.07;;;24.30;99.90;;;;;;5023088;28;20022;-70
2023/06/18 10:10:48;;;;;;;10.00;8.23;;;24.30;99.90;;;;;;5024700;28;20035;-69
2023/06/18 10:13:14;;;;;;;8.57;7.22;;;24.20;99.90;;;;;;5004584;28;20438;-69
2023/06/18 10:15:41;;;;;;;10.07;7.57;;;24.30;99.90;;;;;;5024744;28;20505;-70
2023/06/18 10:18:09;;;;;;;8.57;7.70;;;24.30;99.90;;;;;;5025382;28;20025;-69
2023/06/18 10:20:36;;;;;;;7.68;6.97;;;24.20;99.90;;;;;;5007707;28;20025;-69
2023/06/18 10:23:06;;;;;;;7.85;7.15;;;24.10;99.90;;;;;;5006628;28;20017;-70
2023/06/18 10:25:32;;;;;;;8.07;7.38;;;24.20;99.90;;;;;;5006130;28;20552;-69
2023/06/18 10:27:58;;;;;;;8.45;7.65;;;24.10;99.90;;;;;;5004397;28;20038;-69
2023/06/18 10:30:25;;;;;;;8.05;7.35;;;24.20;99.90;;;;;;5023065;28;20148;-69
2023/06/18 10:32:52;;;;;;;10.23;7.95;;;24.30;99.90;;;;;;5024199;28;20481;-69
2023/06/18 10:35:19;;;;;;;11.55;8.57;;;24.30;99.90;;;;;;5025554;28;20033;-70
2023/06/18 10:37:45;;;;;;;8.93;8.13;;;24.40;99.90;;;;;;5023479;28;20149;-69
2023/06/18 10:40:11;;;;;;;8.32;7.47;;;24.60;99.90;;;;;;5025309;28;20092;-69
2023/06/18 10:42:37;;;;;;;8.30;7.57;;;24.60;99.90;;;;;;5023024;28;20037;-69
2023/06/18 10:45:10;;;;;;;9.00;8.10;;;24.70;99.90;;;;;;5023630;28;20021;-69
2023/06/18 10:47:37;;;;;;;11.32;8.30;;;24.80;99.90;;;;;;5024010;28;20025;-69
2023/06/18 10:50:02;;;;;;;8.23;7.45;;;24.80;99.90;;;;;;5024324;28;20563;-70
2023/06/18 10:52:34;;;;;;;10.68;8.45;;;24.90;99.90;;;;;;5025422;28;20025;-69
2023/06/18 10:55:12;;;;;;;8.23;7.30;;;25.00;99.90;;;;;;5024584;28;20025;-69
2023/06/18 10:57:46;;;;;;;9.18;7.45;;;25.10;99.90;;;;;;5024347;28;20029;-69
2023/06/18 11:00:35;;;;;;;9.13;7.15;;;25.20;99.90;;;;;;5021478;28;20033;-69
2023/06/18 11:03:01;;;;;;;8.98;7.45;;;25.20;99.90;;;;;;5021267;28;20033;-69
2023/06/18 11:05:36;;;;;;;9.00;7.78;;;24.90;99.90;;;;;;5012690;28;20037;-69
2023/06/18 11:08:03;;;;;;;8.48;7.38;;;24.80;99.90;;;;;;5027999;28;20619;-70
2023/06/18 11:10:34;;;;;;;8.10;7.30;;;24.80;99.90;;;;;;5011799;28;20095;-70
2023/06/18 11:13:03;;;;;;;8.65;7.75;;;24.80;99.90;;;;;;4995394;28;20116;-70
2023/06/18 11:15:29;;;;;;;8.65;7.70;;;24.80;99.90;;;;;;5004522;28;20374;-69
2023/06/18 11:18:00;;;;;;;11.27;8.20;;;24.80;99.90;;;;;;5025558;28;20033;-70
2023/06/18 11:20:27;;;;;;;9.13;8.00;;;24.70;99.90;;;;;;5026794;28;20072;-69
2023/06/18 11:22:57;;;;;;;9.88;8.55;;;24.70;99.90;;;;;;5024576;28;20026;-70
2023/06/18 11:25:25;;;;;;;11.40;9.20;;;24.60;99.90;;;;;;5028564;28;20029;-70
2023/06/18 11:27:54;;;;;;;10.48;8.30;;;24.60;99.90;;;;;;5030025;28;20033;-70
2023/06/18 11:30:20;;;;;;;9.32;7.65;;;24.50;99.90;;;;;;5025310;28;20044;-69
2023/06/18 11:32:46;;;;;;;9.68;8.77;;;24.40;99.90;;;;;;5025640;28;20034;-70
2023/06/18 11:35:13;;;;;;;9.68;8.15;;;24.50;99.90;;;;;;5028433;28;20039;-70
2023/06/18 11:37:41;;;;;;;10.05;9.25;;;24.60;99.90;;;;;;5028655;28;20026;-69
2023/06/18 11:40:08;;;;;;;8.90;8.07;;;24.70;99.90;;;;;;5024916;28;20025;-70
2023/06/18 11:42:46;;;;;;;9.38;8.48;;;24.80;99.90;;;;;;5028653;28;20036;-70
2023/06/18 11:45:12;;;;;;;8.85;8.07;;;24.80;99.90;;;;;;5009480;28;20406;-70
2023/06/18 11:47:45;;;;;;;8.77;7.63;;;24.90;99.90;;;;;;5022621;28;20039;-70
2023/06/18 11:50:11;;;;;;;8.70;8.00;;;25.20;99.90;;;;;;5026796;28;20051;-70
2023/06/18 11:52:37;;;;;;;8.50;7.63;;;25.30;99.90;;;;;;5012184;28;20033;-70
2023/06/18 11:55:05;;;;;;;7.78;7.18;;;25.40;99.90;;;;;;5028149;28;20032;-70
2023/06/18 11:57:31;;;;;;;12.25;7.70;;;25.40;99.90;;;;;;5028410;28;20033;-70
2023/06/18 11:59:57;;;;;;;8.88;7.82;;;25.50;99.90;;;;;;5021973;28;20036;-69
2023/06/18 12:02:24;;;;;;;8.32;7.63;;;25.60;99.90;;;;;;5008120;28;20030;-69
2023/06/18 12:04:50;;;;;;;11.25;8.02;;;25.90;99.90;;;;;;5028341;28;20029;-70
2023/06/18 12:07:20;;;;;;;8.23;7.32;;;26.30;99.90;;;;;;5026595;28;20022;-70
2023/06/18 12:09:47;;;;;;;8.63;7.80;;;26.50;99.90;;;;;;5023572;28;20401;-69
2023/06/18 12:12:31;;;;;;;10.70;8.45;;;26.70;99.90;;;;;;5028061;28;20100;-69
2023/06/18 12:15:05;;;;;;;10.32;8.65;;;26.80;99.90;;;;;;5009127;28;20033;-69
2023/06/18 12:17:50;;;;;;;9.55;8.30;;;26.90;99.90;;;;;;5026680;28;20109;-69
2023/06/18 12:20:19;;;;;;;8.55;7.38;;;27.10;99.90;;;;;;5021847;28;20162;-69
2023/06/18 12:22:46;;;;;;;12.38;7.93;;;27.20;99.90;;;;;;5023544;28;20478;-68
2023/06/18 12:25:12;;;;;;;8.73;7.30;;;27.20;99.90;;;;;;5024570;28;20059;-69
2023/06/18 12:27:41;;;;;;;9.60;6.30;;;27.40;99.90;;;;;;5026677;28;20528;-69
2023/06/18 12:30:09;;;;;;;9.43;7.10;;;27.60;99.90;;;;;;5023654;28;20045;-69
2023/06/18 12:32:36;;;;;;;9.23;7.57;;;27.50;99.90;;;;;;5027136;28;20099;-68
2023/06/18 12:35:14;;;;;;;7.38;6.68;;;27.50;99.90;;;;;;5026749;28;20043;-69
2023/06/18 12:37:47;;;;;;;8.70;7.18;;;27.50;99.90;;;;;;5023324;28;20030;-69